Terminal Aerodrome Forecast
Issued by NWS Paducah, KY

Home | Current Version | Previous Version | Text Only | Print | Product List | Glossary Off
Versions: 1 2 3 4 5 6 7 8 9 10 11 12 13 14 15 16 17 18 19 20

000
FTUS43 KPAH 010500
TAFPAH
TAF
KPAH 010520Z 0106/0206 12003KT P6SM SCT050 OVC100
     FM010900 17005KT P6SM SCT025 BKN050
     FM011200 18011G19KT 3SM -RA BR OVC020
      TEMPO 0114/0118 2SM -RA BR OVC007
     FM020100 28015G23KT P6SM OVC015=

USA.gov is the U.S. government's official web portal to all federal, state and local government web resources and services.